sensor_id;sensor_type;location;lat;lon;timestamp;P1;durP1;ratioP1;P2;durP2;ratioP2
23702;SDS011;12030;50.376;8.762;2022-12-07T00:01:29;16.60;;;12.97;;
23702;SDS011;12030;50.376;8.762;2022-12-07T00:04:00;17.90;;;12.63;;
23702;SDS011;12030;50.376;8.762;2022-12-07T00:06:30;15.97;;;13.00;;
23702;SDS011;12030;50.376;8.762;2022-12-07T00:08:57;17.30;;;14.10;;
23702;SDS011;12030;50.376;8.762;2022-12-07T00:11:23;16.43;;;13.60;;
23702;SDS011;12030;50.376;8.762;2022-12-07T00:13:53;16.70;;;13.13;;
23702;SDS011;12030;50.376;8.762;2022-12-07T00:16:20;16.10;;;12.87;;
23702;SDS011;12030;50.376;8.762;2022-12-07T00:18:47;16.93;;;13.97;;
23702;SDS011;12030;50.376;8.762;2022-12-07T00:21:18;20.20;;;13.67;;
23702;SDS011;12030;50.376;8.762;2022-12-07T00:23:46;15.67;;;13.17;;
23702;SDS011;12030;50.376;8.762;2022-12-07T00:26:16;18.67;;;13.60;;
23702;SDS011;12030;50.376;8.762;2022-12-07T00:28:50;19.97;;;13.20;;
23702;SDS011;12030;50.376;8.762;2022-12-07T00:31:18;16.73;;;13.00;;
23702;SDS011;12030;50.376;8.762;2022-12-07T00:33:45;16.70;;;13.77;;
23702;SDS011;12030;50.376;8.762;2022-12-07T00:36:13;16.60;;;14.00;;
23702;SDS011;12030;50.376;8.762;2022-12-07T00:38:40;17.77;;;14.13;;
23702;SDS011;12030;50.376;8.762;2022-12-07T00:41:10;17.37;;;14.30;;
23702;SDS011;12030;50.376;8.762;2022-12-07T00:43:39;19.00;;;14.43;;
23702;SDS011;12030;50.376;8.762;2022-12-07T00:46:06;18.17;;;14.53;;
23702;SDS011;12030;50.376;8.762;2022-12-07T00:48:31;17.70;;;15.10;;
23702;SDS011;12030;50.376;8.762;2022-12-07T00:50:57;19.60;;;14.57;;
23702;SDS011;12030;50.376;8.762;2022-12-07T00:53:23;16.53;;;13.57;;
23702;SDS011;12030;50.376;8.762;2022-12-07T00:55:49;18.63;;;15.50;;
23702;SDS011;12030;50.376;8.762;2022-12-07T00:58:15;17.13;;;14.30;;
23702;SDS011;12030;50.376;8.762;2022-12-07T01:00:41;15.80;;;13.63;;
23702;SDS011;12030;50.376;8.762;2022-12-07T01:03:09;17.87;;;13.33;;
23702;SDS011;12030;50.376;8.762;2022-12-07T01:05:35;16.37;;;13.00;;
23702;SDS011;12030;50.376;8.762;2022-12-07T01:08:01;15.10;;;13.17;;
23702;SDS011;12030;50.376;8.762;2022-12-07T01:10:27;16.00;;;12.80;;
23702;SDS011;12030;50.376;8.762;2022-12-07T01:12:55;16.80;;;12.83;;
23702;SDS011;12030;50.376;8.762;2022-12-07T01:15:21;14.70;;;12.33;;
23702;SDS011;12030;50.376;8.762;2022-12-07T01:17:46;17.57;;;12.23;;
23702;SDS011;12030;50.376;8.762;2022-12-07T01:20:12;14.13;;;12.00;;
23702;SDS011;12030;50.376;8.762;2022-12-07T01:22:42;15.20;;;12.17;;
23702;SDS011;12030;50.376;8.762;2022-12-07T01:25:08;14.60;;;12.60;;
23702;SDS011;12030;50.376;8.762;2022-12-07T01:27:35;12.90;;;11.47;;
23702;SDS011;12030;50.376;8.762;2022-12-07T01:30:02;16.87;;;12.57;;
23702;SDS011;12030;50.376;8.762;2022-12-07T01:32:29;19.20;;;13.83;;
23702;SDS011;12030;50.376;8.762;2022-12-07T01:34:55;16.27;;;13.67;;
23702;SDS011;12030;50.376;8.762;2022-12-07T01:37:20;15.77;;;13.00;;
23702;SDS011;12030;50.376;8.762;2022-12-07T01:39:50;17.80;;;13.23;;
23702;SDS011;12030;50.376;8.762;2022-12-07T01:42:16;14.40;;;12.77;;
23702;SDS011;12030;50.376;8.762;2022-12-07T01:47:52;15.40;;;13.17;;
23702;SDS011;12030;50.376;8.762;2022-12-07T01:50:20;15.87;;;12.47;;
23702;SDS011;12030;50.376;8.762;2022-12-07T01:52:49;14.87;;;12.97;;
23702;SDS011;12030;50.376;8.762;2022-12-07T01:55:18;18.43;;;13.90;;
23702;SDS011;12030;50.376;8.762;2022-12-07T01:57:45;15.10;;;13.50;;
23702;SDS011;12030;50.376;8.762;2022-12-07T02:00:14;17.30;;;13.03;;
23702;SDS011;12030;50.376;8.762;2022-12-07T02:02:45;14.33;;;12.00;;
23702;SDS011;12030;50.376;8.762;2022-12-07T02:05:15;16.33;;;13.43;;
23702;SDS011;12030;50.376;8.762;2022-12-07T02:07:42;15.90;;;13.03;;
23702;SDS011;12030;50.376;8.762;2022-12-07T02:10:14;16.27;;;13.20;;
23702;SDS011;12030;50.376;8.762;2022-12-07T02:12:46;13.17;;;10.13;;
23702;SDS011;12030;50.376;8.762;2022-12-07T02:15:14;13.87;;;11.07;;
23702;SDS011;12030;50.376;8.762;2022-12-07T02:20:55;10.43;;;8.33;;
23702;SDS011;12030;50.376;8.762;2022-12-07T02:23:28;7.63;;;6.73;;
23702;SDS011;12030;50.376;8.762;2022-12-07T02:29:20;6.33;;;4.80;;
23702;SDS011;12030;50.376;8.762;2022-12-07T02:31:54;5.80;;;5.03;;
23702;SDS011;12030;50.376;8.762;2022-12-07T02:37:19;6.63;;;5.27;;
23702;SDS011;12030;50.376;8.762;2022-12-07T02:40:12;6.27;;;4.60;;
23702;SDS011;12030;50.376;8.762;2022-12-07T02:42:45;5.43;;;4.57;;
23702;SDS011;12030;50.376;8.762;2022-12-07T02:45:15;6.90;;;5.10;;
23702;SDS011;12030;50.376;8.762;2022-12-07T02:47:45;5.57;;;4.87;;
23702;SDS011;12030;50.376;8.762;2022-12-07T02:50:17;5.70;;;4.70;;
23702;SDS011;12030;50.376;8.762;2022-12-07T02:52:46;5.27;;;4.37;;
23702;SDS011;12030;50.376;8.762;2022-12-07T02:55:12;6.83;;;4.90;;
23702;SDS011;12030;50.376;8.762;2022-12-07T03:00:26;6.00;;;4.67;;
23702;SDS011;12030;50.376;8.762;2022-12-07T03:13:30;6.90;;;4.63;;
23702;SDS011;12030;50.376;8.762;2022-12-07T03:21:25;6.20;;;4.50;;
23702;SDS011;12030;50.376;8.762;2022-12-07T03:23:56;5.33;;;4.57;;
23702;SDS011;12030;50.376;8.762;2022-12-07T03:26:25;6.27;;;5.17;;
23702;SDS011;12030;50.376;8.762;2022-12-07T03:28:58;8.30;;;5.37;;
23702;SDS011;12030;50.376;8.762;2022-12-07T03:31:34;6.73;;;5.60;;
23702;SDS011;12030;50.376;8.762;2022-12-07T03:34:23;6.23;;;5.30;;
23702;SDS011;12030;50.376;8.762;2022-12-07T03:37:02;5.77;;;4.97;;
23702;SDS011;12030;50.376;8.762;2022-12-07T03:39:33;6.33;;;5.43;;
23702;SDS011;12030;50.376;8.762;2022-12-07T03:42:10;6.97;;;5.80;;
23702;SDS011;12030;50.376;8.762;2022-12-07T03:44:37;6.13;;;5.50;;
23702;SDS011;12030;50.376;8.762;2022-12-07T03:47:06;6.33;;;5.40;;
23702;SDS011;12030;50.376;8.762;2022-12-07T03:49:48;5.87;;;5.27;;
23702;SDS011;12030;50.376;8.762;2022-12-07T03:52:23;8.30;;;5.50;;
23702;SDS011;12030;50.376;8.762;2022-12-07T03:55:00;8.07;;;6.43;;
23702;SDS011;12030;50.376;8.762;2022-12-07T03:57:43;8.00;;;5.73;;
23702;SDS011;12030;50.376;8.762;2022-12-07T04:00:12;7.83;;;5.77;;
23702;SDS011;12030;50.376;8.762;2022-12-07T04:02:38;7.27;;;5.63;;
23702;SDS011;12030;50.376;8.762;2022-12-07T04:05:04;7.03;;;6.33;;
23702;SDS011;12030;50.376;8.762;2022-12-07T04:07:30;8.90;;;6.07;;
23702;SDS011;12030;50.376;8.762;2022-12-07T04:09:56;6.13;;;5.53;;
23702;SDS011;12030;50.376;8.762;2022-12-07T04:12:22;9.40;;;6.67;;
23702;SDS011;12030;50.376;8.762;2022-12-07T04:14:48;6.20;;;5.60;;
23702;SDS011;12030;50.376;8.762;2022-12-07T04:17:13;7.07;;;5.90;;
23702;SDS011;12030;50.376;8.762;2022-12-07T04:19:39;8.10;;;6.07;;
23702;SDS011;12030;50.376;8.762;2022-12-07T04:22:05;6.40;;;5.77;;
23702;SDS011;12030;50.376;8.762;2022-12-07T04:24:31;6.97;;;6.07;;
23702;SDS011;12030;50.376;8.762;2022-12-07T04:26:57;8.83;;;6.50;;
23702;SDS011;12030;50.376;8.762;2022-12-07T04:29:23;6.93;;;6.23;;
23702;SDS011;12030;50.376;8.762;2022-12-07T04:31:49;7.43;;;6.37;;
23702;SDS011;12030;50.376;8.762;2022-12-07T04:34:15;7.63;;;6.70;;
23702;SDS011;12030;50.376;8.762;2022-12-07T04:36:41;7.80;;;6.87;;
23702;SDS011;12030;50.376;8.762;2022-12-07T04:39:09;7.83;;;7.00;;
23702;SDS011;12030;50.376;8.762;2022-12-07T04:41:43;7.70;;;6.83;;
23702;SDS011;12030;50.376;8.762;2022-12-07T04:44:09;7.47;;;6.77;;
23702;SDS011;12030;50.376;8.762;2022-12-07T04:46:35;8.57;;;6.80;;
23702;SDS011;12030;50.376;8.762;2022-12-07T04:49:01;7.70;;;6.53;;
23702;SDS011;12030;50.376;8.762;2022-12-07T04:51:27;8.43;;;7.50;;
23702;SDS011;12030;50.376;8.762;2022-12-07T04:53:53;9.27;;;7.50;;
23702;SDS011;12030;50.376;8.762;2022-12-07T04:56:20;10.73;;;7.50;;
23702;SDS011;12030;50.376;8.762;2022-12-07T04:58:46;10.77;;;7.97;;
23702;SDS011;12030;50.376;8.762;2022-12-07T05:01:14;8.70;;;7.50;;
23702;SDS011;12030;50.376;8.762;2022-12-07T05:03:41;10.13;;;7.17;;
23702;SDS011;12030;50.376;8.762;2022-12-07T05:06:08;9.27;;;7.63;;
23702;SDS011;12030;50.376;8.762;2022-12-07T05:08:34;8.37;;;7.40;;
23702;SDS011;12030;50.376;8.762;2022-12-07T05:11:00;8.73;;;7.83;;
23702;SDS011;12030;50.376;8.762;2022-12-07T05:13:27;9.10;;;7.33;;
23702;SDS011;12030;50.376;8.762;2022-12-07T05:15:52;9.33;;;7.27;;
23702;SDS011;12030;50.376;8.762;2022-12-07T05:18:18;8.53;;;6.90;;
23702;SDS011;12030;50.376;8.762;2022-12-07T05:20:44;8.83;;;7.10;;
23702;SDS011;12030;50.376;8.762;2022-12-07T05:23:10;7.13;;;6.30;;
23702;SDS011;12030;50.376;8.762;2022-12-07T05:25:36;9.97;;;6.63;;
23702;SDS011;12030;50.376;8.762;2022-12-07T05:28:02;7.53;;;6.57;;
23702;SDS011;12030;50.376;8.762;2022-12-07T05:30:28;9.13;;;6.70;;
23702;SDS011;12030;50.376;8.762;2022-12-07T05:32:54;8.53;;;7.33;;
23702;SDS011;12030;50.376;8.762;2022-12-07T05:35:20;10.80;;;7.40;;
23702;SDS011;12030;50.376;8.762;2022-12-07T05:37:46;9.83;;;6.60;;
23702;SDS011;12030;50.376;8.762;2022-12-07T05:40:12;8.13;;;6.97;;
23702;SDS011;12030;50.376;8.762;2022-12-07T05:42:38;8.07;;;6.97;;
23702;SDS011;12030;50.376;8.762;2022-12-07T05:45:05;9.83;;;6.70;;
23702;SDS011;12030;50.376;8.762;2022-12-07T05:47:31;7.60;;;6.80;;
23702;SDS011;12030;50.376;8.762;2022-12-07T05:49:56;8.63;;;7.73;;
23702;SDS011;12030;50.376;8.762;2022-12-07T05:52:22;9.57;;;7.30;;
23702;SDS011;12030;50.376;8.762;2022-12-07T05:54:48;8.47;;;7.37;;
23702;SDS011;12030;50.376;8.762;2022-12-07T05:57:14;8.40;;;7.47;;
23702;SDS011;12030;50.376;8.762;2022-12-07T05:59:39;9.57;;;7.83;;
23702;SDS011;12030;50.376;8.762;2022-12-07T06:02:06;9.50;;;8.30;;
23702;SDS011;12030;50.376;8.762;2022-12-07T06:04:37;10.90;;;8.57;;
23702;SDS011;12030;50.376;8.762;2022-12-07T06:07:05;10.27;;;8.93;;
23702;SDS011;12030;50.376;8.762;2022-12-07T06:09:32;10.03;;;8.50;;
23702;SDS011;12030;50.376;8.762;2022-12-07T06:11:59;9.83;;;8.83;;
23702;SDS011;12030;50.376;8.762;2022-12-07T06:14:43;11.70;;;8.50;;
23702;SDS011;12030;50.376;8.762;2022-12-07T06:17:09;11.10;;;9.17;;
23702;SDS011;12030;50.376;8.762;2022-12-07T06:19:36;12.23;;;9.33;;
23702;SDS011;12030;50.376;8.762;2022-12-07T06:22:01;12.27;;;8.00;;
23702;SDS011;12030;50.376;8.762;2022-12-07T06:24:29;10.50;;;8.63;;
23702;SDS011;12030;50.376;8.762;2022-12-07T06:26:55;8.73;;;7.60;;
23702;SDS011;12030;50.376;8.762;2022-12-07T06:29:21;8.70;;;7.80;;
23702;SDS011;12030;50.376;8.762;2022-12-07T06:31:47;10.03;;;8.23;;
23702;SDS011;12030;50.376;8.762;2022-12-07T06:34:14;10.63;;;7.97;;
23702;SDS011;12030;50.376;8.762;2022-12-07T06:36:41;9.40;;;8.13;;
23702;SDS011;12030;50.376;8.762;2022-12-07T06:39:07;10.37;;;8.23;;
23702;SDS011;12030;50.376;8.762;2022-12-07T06:41:34;11.27;;;8.63;;
23702;SDS011;12030;50.376;8.762;2022-12-07T06:44:01;9.93;;;8.23;;
23702;SDS011;12030;50.376;8.762;2022-12-07T06:46:27;9.10;;;7.43;;
23702;SDS011;12030;50.376;8.762;2022-12-07T06:48:53;9.10;;;7.50;;
23702;SDS011;12030;50.376;8.762;2022-12-07T06:51:19;9.67;;;7.20;;
23702;SDS011;12030;50.376;8.762;2022-12-07T06:53:44;8.30;;;6.40;;
23702;SDS011;12030;50.376;8.762;2022-12-07T06:56:10;7.10;;;6.20;;
23702;SDS011;12030;50.376;8.762;2022-12-07T06:58:35;7.77;;;6.97;;
23702;SDS011;12030;50.376;8.762;2022-12-07T07:01:01;7.30;;;6.50;;
23702;SDS011;12030;50.376;8.762;2022-12-07T07:03:26;7.03;;;6.33;;
23702;SDS011;12030;50.376;8.762;2022-12-07T07:05:52;6.73;;;6.00;;
23702;SDS011;12030;50.376;8.762;2022-12-07T07:08:17;7.80;;;5.50;;
23702;SDS011;12030;50.376;8.762;2022-12-07T07:10:43;6.13;;;5.53;;
23702;SDS011;12030;50.376;8.762;2022-12-07T07:13:09;6.80;;;5.60;;
23702;SDS011;12030;50.376;8.762;2022-12-07T07:15:34;6.73;;;6.03;;
23702;SDS011;12030;50.376;8.762;2022-12-07T07:18:02;6.77;;;6.07;;
23702;SDS011;12030;50.376;8.762;2022-12-07T07:20:28;6.93;;;5.83;;
23702;SDS011;12030;50.376;8.762;2022-12-07T07:22:54;6.33;;;5.27;;
23702;SDS011;12030;50.376;8.762;2022-12-07T07:25:20;5.43;;;4.93;;
23702;SDS011;12030;50.376;8.762;2022-12-07T07:27:46;6.17;;;5.40;;
23702;SDS011;12030;50.376;8.762;2022-12-07T07:30:12;6.67;;;4.83;;
23702;SDS011;12030;50.376;8.762;2022-12-07T07:32:37;6.13;;;5.40;;
23702;SDS011;12030;50.376;8.762;2022-12-07T07:35:03;6.37;;;5.60;;
23702;SDS011;12030;50.376;8.762;2022-12-07T07:37:29;7.07;;;5.53;;
23702;SDS011;12030;50.376;8.762;2022-12-07T07:39:55;7.33;;;5.67;;
23702;SDS011;12030;50.376;8.762;2022-12-07T07:42:20;6.27;;;5.40;;
23702;SDS011;12030;50.376;8.762;2022-12-07T07:44:46;6.60;;;5.57;;
23702;SDS011;12030;50.376;8.762;2022-12-07T07:47:11;6.63;;;5.83;;
23702;SDS011;12030;50.376;8.762;2022-12-07T07:49:37;6.20;;;5.60;;
23702;SDS011;12030;50.376;8.762;2022-12-07T07:52:02;9.23;;;6.03;;
23702;SDS011;12030;50.376;8.762;2022-12-07T07:54:29;6.07;;;5.47;;
23702;SDS011;12030;50.376;8.762;2022-12-07T07:56:55;7.07;;;5.47;;
23702;SDS011;12030;50.376;8.762;2022-12-07T07:59:20;7.27;;;5.60;;
23702;SDS011;12030;50.376;8.762;2022-12-07T08:01:46;6.57;;;5.90;;
23702;SDS011;12030;50.376;8.762;2022-12-07T08:04:11;8.50;;;5.80;;
23702;SDS011;12030;50.376;8.762;2022-12-07T08:06:37;6.53;;;5.70;;
23702;SDS011;12030;50.376;8.762;2022-12-07T08:09:02;6.57;;;5.80;;
23702;SDS011;12030;50.376;8.762;2022-12-07T08:11:30;7.27;;;5.90;;
23702;SDS011;12030;50.376;8.762;2022-12-07T08:13:55;6.27;;;5.47;;
23702;SDS011;12030;50.376;8.762;2022-12-07T08:16:21;7.60;;;6.23;;
23702;SDS011;12030;50.376;8.762;2022-12-07T08:18:46;7.83;;;5.70;;
23702;SDS011;12030;50.376;8.762;2022-12-07T08:21:13;6.87;;;6.17;;
23702;SDS011;12030;50.376;8.762;2022-12-07T08:23:39;6.33;;;5.63;;
23702;SDS011;12030;50.376;8.762;2022-12-07T08:26:06;7.33;;;5.53;;
23702;SDS011;12030;50.376;8.762;2022-12-07T08:28:33;6.47;;;5.80;;
23702;SDS011;12030;50.376;8.762;2022-12-07T08:31:00;6.97;;;5.83;;
23702;SDS011;12030;50.376;8.762;2022-12-07T08:33:37;6.57;;;5.90;;
23702;SDS011;12030;50.376;8.762;2022-12-07T08:36:07;8.40;;;6.03;;
23702;SDS011;12030;50.376;8.762;2022-12-07T08:38:35;7.10;;;5.70;;
23702;SDS011;12030;50.376;8.762;2022-12-07T08:41:02;6.97;;;5.53;;
23702;SDS011;12030;50.376;8.762;2022-12-07T08:43:28;7.67;;;5.67;;
23702;SDS011;12030;50.376;8.762;2022-12-07T08:45:57;9.57;;;5.63;;
23702;SDS011;12030;50.376;8.762;2022-12-07T08:48:30;8.17;;;6.23;;
23702;SDS011;12030;50.376;8.762;2022-12-07T08:50:57;7.80;;;5.83;;
23702;SDS011;12030;50.376;8.762;2022-12-07T08:53:23;8.23;;;5.40;;
23702;SDS011;12030;50.376;8.762;2022-12-07T08:55:49;6.70;;;5.80;;
23702;SDS011;12030;50.376;8.762;2022-12-07T08:58:14;6.60;;;5.67;;
23702;SDS011;12030;50.376;8.762;2022-12-07T09:00:40;6.27;;;5.37;;
23702;SDS011;12030;50.376;8.762;2022-12-07T09:03:06;7.10;;;5.00;;
23702;SDS011;12030;50.376;8.762;2022-12-07T09:05:32;7.13;;;5.40;;
23702;SDS011;12030;50.376;8.762;2022-12-07T09:07:59;6.03;;;4.53;;
23702;SDS011;12030;50.376;8.762;2022-12-07T09:10:26;9.90;;;4.87;;
23702;SDS011;12030;50.376;8.762;2022-12-07T09:12:52;5.00;;;4.50;;
23702;SDS011;12030;50.376;8.762;2022-12-07T09:15:18;6.90;;;4.73;;
23702;SDS011;12030;50.376;8.762;2022-12-07T09:17:43;6.77;;;4.70;;
23702;SDS011;12030;50.376;8.762;2022-12-07T09:20:09;4.80;;;3.93;;
23702;SDS011;12030;50.376;8.762;2022-12-07T09:22:35;6.97;;;4.07;;
23702;SDS011;12030;50.376;8.762;2022-12-07T09:25:00;5.43;;;4.07;;
23702;SDS011;12030;50.376;8.762;2022-12-07T09:27:27;6.23;;;3.97;;
23702;SDS011;12030;50.376;8.762;2022-12-07T09:29:53;6.33;;;4.13;;
23702;SDS011;12030;50.376;8.762;2022-12-07T09:32:18;5.97;;;4.23;;
23702;SDS011;12030;50.376;8.762;2022-12-07T09:34:44;4.37;;;3.57;;
23702;SDS011;12030;50.376;8.762;2022-12-07T09:37:10;6.80;;;3.70;;
23702;SDS011;12030;50.376;8.762;2022-12-07T09:39:39;5.73;;;4.03;;
23702;SDS011;12030;50.376;8.762;2022-12-07T09:42:05;6.33;;;3.70;;
23702;SDS011;12030;50.376;8.762;2022-12-07T09:44:32;4.80;;;3.37;;
23702;SDS011;12030;50.376;8.762;2022-12-07T09:46:58;7.13;;;3.80;;
23702;SDS011;12030;50.376;8.762;2022-12-07T09:49:25;4.43;;;3.40;;
23702;SDS011;12030;50.376;8.762;2022-12-07T09:52:27;4.00;;;3.17;;
23702;SDS011;12030;50.376;8.762;2022-12-07T09:54:49;6.77;;;3.60;;
23702;SDS011;12030;50.376;8.762;2022-12-07T09:57:16;4.47;;;3.13;;
23702;SDS011;12030;50.376;8.762;2022-12-07T09:59:43;4.63;;;2.33;;
23702;SDS011;12030;50.376;8.762;2022-12-07T10:05:04;4.77;;;2.60;;
23702;SDS011;12030;50.376;8.762;2022-12-07T10:07:31;5.90;;;2.30;;
23702;SDS011;12030;50.376;8.762;2022-12-07T10:09:57;4.27;;;2.43;;
23702;SDS011;12030;50.376;8.762;2022-12-07T10:12:23;4.00;;;2.13;;
23702;SDS011;12030;50.376;8.762;2022-12-07T10:15:00;6.07;;;2.40;;
23702;SDS011;12030;50.376;8.762;2022-12-07T10:17:32;6.67;;;2.50;;
23702;SDS011;12030;50.376;8.762;2022-12-07T10:20:13;3.17;;;2.50;;
23702;SDS011;12030;50.376;8.762;2022-12-07T10:25:40;6.17;;;2.63;;
23702;SDS011;12030;50.376;8.762;2022-12-07T10:30:33;5.13;;;2.70;;
23702;SDS011;12030;50.376;8.762;2022-12-07T10:36:01;4.30;;;2.87;;
23702;SDS011;12030;50.376;8.762;2022-12-07T10:38:59;3.53;;;2.87;;
23702;SDS011;12030;50.376;8.762;2022-12-07T10:41:26;5.53;;;3.10;;
23702;SDS011;12030;50.376;8.762;2022-12-07T10:43:56;6.97;;;3.20;;
23702;SDS011;12030;50.376;8.762;2022-12-07T10:46:33;5.10;;;3.17;;
23702;SDS011;12030;50.376;8.762;2022-12-07T10:52:07;4.53;;;3.30;;
23702;SDS011;12030;50.376;8.762;2022-12-07T10:55:22;5.20;;;2.83;;
23702;SDS011;12030;50.376;8.762;2022-12-07T11:01:08;3.60;;;2.70;;
23702;SDS011;12030;50.376;8.762;2022-12-07T11:17:02;5.10;;;2.60;;
23702;SDS011;12030;50.376;8.762;2022-12-07T11:27:59;5.43;;;2.70;;
23702;SDS011;12030;50.376;8.762;2022-12-07T11:33:53;4.87;;;2.73;;
23702;SDS011;12030;50.376;8.762;2022-12-07T11:36:37;4.83;;;2.27;;
23702;SDS011;12030;50.376;8.762;2022-12-07T11:39:28;2.80;;;2.03;;
23702;SDS011;12030;50.376;8.762;2022-12-07T11:42:04;3.00;;;2.43;;
23702;SDS011;12030;50.376;8.762;2022-12-07T11:44:39;3.07;;;2.20;;
23702;SDS011;12030;50.376;8.762;2022-12-07T11:47:18;5.43;;;2.60;;
23702;SDS011;12030;50.376;8.762;2022-12-07T11:49:53;4.47;;;2.50;;
23702;SDS011;12030;50.376;8.762;2022-12-07T11:52:37;5.07;;;2.50;;
23702;SDS011;12030;50.376;8.762;2022-12-07T11:55:21;6.23;;;2.53;;
23702;SDS011;12030;50.376;8.762;2022-12-07T11:57:56;3.90;;;2.47;;
23702;SDS011;12030;50.376;8.762;2022-12-07T12:00:28;3.57;;;2.10;;
23702;SDS011;12030;50.376;8.762;2022-12-07T12:03:10;6.10;;;2.40;;
23702;SDS011;12030;50.376;8.762;2022-12-07T12:05:40;4.70;;;2.60;;
23702;SDS011;12030;50.376;8.762;2022-12-07T12:13:52;5.33;;;2.70;;
23702;SDS011;12030;50.376;8.762;2022-12-07T12:19:11;4.17;;;2.80;;
23702;SDS011;12030;50.376;8.762;2022-12-07T12:21:56;5.30;;;2.83;;
23702;SDS011;12030;50.376;8.762;2022-12-07T12:24:43;5.67;;;2.40;;
23702;SDS011;12030;50.376;8.762;2022-12-07T12:27:18;3.67;;;2.23;;
23702;SDS011;12030;50.376;8.762;2022-12-07T12:29:56;3.97;;;2.70;;
23702;SDS011;12030;50.376;8.762;2022-12-07T12:32:45;5.53;;;2.00;;
23702;SDS011;12030;50.376;8.762;2022-12-07T12:35:27;3.40;;;1.60;;
23702;SDS011;12030;50.376;8.762;2022-12-07T12:38:21;2.57;;;1.60;;
23702;SDS011;12030;50.376;8.762;2022-12-07T12:40:50;5.67;;;1.60;;
23702;SDS011;12030;50.376;8.762;2022-12-07T12:46:51;2.30;;;1.50;;
23702;SDS011;12030;50.376;8.762;2022-12-07T12:51:47;2.10;;;1.20;;
23702;SDS011;12030;50.376;8.762;2022-12-07T12:54:29;3.83;;;1.57;;
23702;SDS011;12030;50.376;8.762;2022-12-07T13:02:24;4.97;;;2.13;;
23702;SDS011;12030;50.376;8.762;2022-12-07T13:13:01;4.03;;;1.60;;
23702;SDS011;12030;50.376;8.762;2022-12-07T13:15:39;4.67;;;2.10;;
23702;SDS011;12030;50.376;8.762;2022-12-07T13:18:23;3.57;;;1.70;;
23702;SDS011;12030;50.376;8.762;2022-12-07T13:20:51;6.43;;;2.00;;
23702;SDS011;12030;50.376;8.762;2022-12-07T13:26:12;3.33;;;1.90;;
23702;SDS011;12030;50.376;8.762;2022-12-07T13:28:44;4.27;;;2.03;;
23702;SDS011;12030;50.376;8.762;2022-12-07T13:31:19;3.20;;;1.80;;
23702;SDS011;12030;50.376;8.762;2022-12-07T13:33:48;5.63;;;2.10;;
23702;SDS011;12030;50.376;8.762;2022-12-07T13:36:17;6.03;;;2.90;;
23702;SDS011;12030;50.376;8.762;2022-12-07T13:38:48;7.07;;;2.37;;
23702;SDS011;12030;50.376;8.762;2022-12-07T13:41:17;2.67;;;2.13;;
23702;SDS011;12030;50.376;8.762;2022-12-07T13:46:12;3.90;;;2.47;;
23702;SDS011;12030;50.376;8.762;2022-12-07T13:48:46;5.23;;;2.20;;
23702;SDS011;12030;50.376;8.762;2022-12-07T13:51:20;4.27;;;2.47;;
23702;SDS011;12030;50.376;8.762;2022-12-07T13:53:49;6.40;;;2.30;;
23702;SDS011;12030;50.376;8.762;2022-12-07T13:56:17;3.97;;;2.37;;
23702;SDS011;12030;50.376;8.762;2022-12-07T13:58:43;5.40;;;2.73;;
23702;SDS011;12030;50.376;8.762;2022-12-07T14:01:09;6.07;;;2.17;;
23702;SDS011;12030;50.376;8.762;2022-12-07T14:03:35;4.60;;;2.50;;
23702;SDS011;12030;50.376;8.762;2022-12-07T14:06:18;4.90;;;2.30;;
23702;SDS011;12030;50.376;8.762;2022-12-07T14:09:06;4.80;;;2.70;;
23702;SDS011;12030;50.376;8.762;2022-12-07T14:11:33;6.27;;;2.70;;
23702;SDS011;12030;50.376;8.762;2022-12-07T14:13:59;3.97;;;2.27;;
23702;SDS011;12030;50.376;8.762;2022-12-07T14:16:31;5.87;;;2.53;;
23702;SDS011;12030;50.376;8.762;2022-12-07T14:19:04;3.30;;;2.20;;
23702;SDS011;12030;50.376;8.762;2022-12-07T14:21:54;4.87;;;2.90;;
23702;SDS011;12030;50.376;8.762;2022-12-07T14:24:40;2.73;;;2.00;;
23702;SDS011;12030;50.376;8.762;2022-12-07T14:27:15;3.13;;;2.33;;
23702;SDS011;12030;50.376;8.762;2022-12-07T14:29:46;5.83;;;2.67;;
23702;SDS011;12030;50.376;8.762;2022-12-07T14:32:25;4.47;;;2.60;;
23702;SDS011;12030;50.376;8.762;2022-12-07T14:35:00;3.90;;;2.60;;
23702;SDS011;12030;50.376;8.762;2022-12-07T14:37:26;5.10;;;2.50;;
23702;SDS011;12030;50.376;8.762;2022-12-07T14:39:52;4.80;;;2.60;;
23702;SDS011;12030;50.376;8.762;2022-12-07T14:42:18;4.03;;;2.33;;
23702;SDS011;12030;50.376;8.762;2022-12-07T14:44:44;5.47;;;2.20;;
23702;SDS011;12030;50.376;8.762;2022-12-07T14:47:10;3.40;;;2.10;;
23702;SDS011;12030;50.376;8.762;2022-12-07T14:49:36;3.97;;;2.07;;
23702;SDS011;12030;50.376;8.762;2022-12-07T14:52:02;3.87;;;1.97;;
23702;SDS011;12030;50.376;8.762;2022-12-07T14:54:30;4.57;;;1.60;;
23702;SDS011;12030;50.376;8.762;2022-12-07T14:56:57;6.03;;;2.10;;
23702;SDS011;12030;50.376;8.762;2022-12-07T14:59:23;4.97;;;2.07;;
23702;SDS011;12030;50.376;8.762;2022-12-07T15:01:48;4.10;;;1.70;;
23702;SDS011;12030;50.376;8.762;2022-12-07T15:04:15;2.60;;;1.50;;
23702;SDS011;12030;50.376;8.762;2022-12-07T15:06:40;4.37;;;1.60;;
23702;SDS011;12030;50.376;8.762;2022-12-07T15:09:08;4.10;;;1.90;;
23702;SDS011;12030;50.376;8.762;2022-12-07T15:11:36;4.37;;;2.00;;
23702;SDS011;12030;50.376;8.762;2022-12-07T15:14:01;2.60;;;1.53;;
23702;SDS011;12030;50.376;8.762;2022-12-07T15:16:33;3.70;;;1.40;;
23702;SDS011;12030;50.376;8.762;2022-12-07T15:19:00;4.37;;;1.83;;
23702;SDS011;12030;50.376;8.762;2022-12-07T15:21:25;3.77;;;2.00;;
23702;SDS011;12030;50.376;8.762;2022-12-07T15:23:51;4.87;;;2.20;;
23702;SDS011;12030;50.376;8.762;2022-12-07T15:26:16;4.07;;;2.13;;
23702;SDS011;12030;50.376;8.762;2022-12-07T15:28:42;5.93;;;2.50;;
23702;SDS011;12030;50.376;8.762;2022-12-07T15:31:11;2.90;;;1.90;;
23702;SDS011;12030;50.376;8.762;2022-12-07T15:33:37;2.43;;;1.53;;
23702;SDS011;12030;50.376;8.762;2022-12-07T15:36:03;3.17;;;2.00;;
23702;SDS011;12030;50.376;8.762;2022-12-07T15:38:29;4.43;;;2.17;;
23702;SDS011;12030;50.376;8.762;2022-12-07T15:40:55;4.03;;;2.07;;
23702;SDS011;12030;50.376;8.762;2022-12-07T15:43:21;4.33;;;2.03;;
23702;SDS011;12030;50.376;8.762;2022-12-07T15:46:05;3.27;;;2.47;;
23702;SDS011;12030;50.376;8.762;2022-12-07T15:48:30;5.10;;;2.40;;
23702;SDS011;12030;50.376;8.762;2022-12-07T15:51:03;5.67;;;2.43;;
23702;SDS011;12030;50.376;8.762;2022-12-07T15:53:30;4.33;;;2.50;;
23702;SDS011;12030;50.376;8.762;2022-12-07T15:55:56;3.93;;;2.60;;
23702;SDS011;12030;50.376;8.762;2022-12-07T15:58:21;3.50;;;2.47;;
23702;SDS011;12030;50.376;8.762;2022-12-07T16:00:47;3.07;;;2.20;;
23702;SDS011;12030;50.376;8.762;2022-12-07T16:03:13;4.87;;;2.27;;
23702;SDS011;12030;50.376;8.762;2022-12-07T16:05:38;5.10;;;2.43;;
23702;SDS011;12030;50.376;8.762;2022-12-07T16:08:04;3.23;;;2.00;;
23702;SDS011;12030;50.376;8.762;2022-12-07T16:10:30;5.17;;;1.70;;
23702;SDS011;12030;50.376;8.762;2022-12-07T16:12:55;2.57;;;1.33;;
23702;SDS011;12030;50.376;8.762;2022-12-07T16:15:21;2.43;;;1.30;;
23702;SDS011;12030;50.376;8.762;2022-12-07T16:17:49;3.93;;;1.50;;
23702;SDS011;12030;50.376;8.762;2022-12-07T16:20:15;3.77;;;1.40;;
23702;SDS011;12030;50.376;8.762;2022-12-07T16:22:40;2.93;;;1.50;;
23702;SDS011;12030;50.376;8.762;2022-12-07T16:25:06;3.40;;;1.67;;
23702;SDS011;12030;50.376;8.762;2022-12-07T16:27:31;3.83;;;1.93;;
23702;SDS011;12030;50.376;8.762;2022-12-07T16:29:57;2.17;;;1.70;;
23702;SDS011;12030;50.376;8.762;2022-12-07T16:32:22;2.70;;;1.87;;
23702;SDS011;12030;50.376;8.762;2022-12-07T16:34:48;2.43;;;1.77;;
23702;SDS011;12030;50.376;8.762;2022-12-07T16:37:14;3.23;;;1.80;;
23702;SDS011;12030;50.376;8.762;2022-12-07T16:39:39;2.73;;;1.70;;
23702;SDS011;12030;50.376;8.762;2022-12-07T16:42:05;3.47;;;1.70;;